createdAt,value
2023-03-12T00:01:14.866Z,6.90
2023-03-12T00:03:41.783Z,6.60
2023-03-12T00:06:10.831Z,6.20
2023-03-12T00:08:37.739Z,6.40
2023-03-12T00:11:04.320Z,6.30
2023-03-12T00:13:30.878Z,6.50
2023-03-12T00:15:57.550Z,6.40
2023-03-12T00:18:24.172Z,6.40
2023-03-12T00:20:50.777Z,6.40
2023-03-12T00:23:17.352Z,6.30
2023-03-12T00:25:46.733Z,6.30
2023-03-12T00:28:13.526Z,6.30
2023-03-12T00:30:40.102Z,6.40
2023-03-12T00:33:06.684Z,6.30
2023-03-12T00:35:33.262Z,6.00
2023-03-12T00:37:59.846Z,6.00
2023-03-12T00:40:26.427Z,5.90
2023-03-12T00:42:53.007Z,5.50
2023-03-12T00:45:19.592Z,5.20
2023-03-12T00:47:46.194Z,5.10
2023-03-12T00:50:15.107Z,5.50
2023-03-12T00:52:41.724Z,5.10
2023-03-12T00:55:08.328Z,4.80
2023-03-12T00:57:36.794Z,4.80
2023-03-12T01:00:03.458Z,4.60
2023-03-12T01:02:30.082Z,4.60
2023-03-12T01:04:56.663Z,5.00
2023-03-12T01:07:23.234Z,5.20
2023-03-12T01:09:49.826Z,5.40
2023-03-12T01:12:16.376Z,5.70
2023-03-12T01:14:43.028Z,5.20
2023-03-12T01:17:09.623Z,5.40
2023-03-12T01:19:36.279Z,5.30
2023-03-12T01:22:02.847Z,5.30
2023-03-12T01:24:29.446Z,5.10
2023-03-12T01:26:56.015Z,4.90
2023-03-12T01:29:22.699Z,5.20
2023-03-12T01:31:49.365Z,5.00
2023-03-12T01:34:15.995Z,4.90
2023-03-12T01:36:42.584Z,5.00
2023-03-12T01:39:09.168Z,5.20
2023-03-12T01:41:35.731Z,5.40
2023-03-12T01:44:02.324Z,5.50
2023-03-12T01:46:29.061Z,5.00
2023-03-12T01:48:55.665Z,3.90
2023-03-12T01:51:22.241Z,3.90
2023-03-12T01:53:48.832Z,4.20
2023-03-12T01:56:15.421Z,4.40
2023-03-12T01:58:42.090Z,3.90
2023-03-12T02:01:08.802Z,3.30
2023-03-12T02:03:35.688Z,3.00
2023-03-12T02:06:02.367Z,3.50
2023-03-12T02:08:28.951Z,4.00
2023-03-12T02:10:55.579Z,4.20
2023-03-12T02:13:22.297Z,4.40
2023-03-12T02:15:48.874Z,4.40
2023-03-12T02:18:15.449Z,4.30
2023-03-12T02:20:42.040Z,4.20
2023-03-12T02:23:08.726Z,4.30
2023-03-12T02:25:35.298Z,4.20
2023-03-12T02:28:01.905Z,4.00
2023-03-12T02:30:28.510Z,3.20
2023-03-12T02:32:56.175Z,3.50
2023-03-12T02:35:22.750Z,3.70
2023-03-12T02:37:49.303Z,3.90
2023-03-12T02:40:15.914Z,4.00
2023-03-12T02:42:42.524Z,3.60
2023-03-12T02:45:09.114Z,3.40
2023-03-12T02:47:35.839Z,3.60
2023-03-12T02:50:02.387Z,3.80
2023-03-12T02:52:29.035Z,3.90
2023-03-12T02:54:55.625Z,3.80
2023-03-12T02:57:22.204Z,3.90
2023-03-12T02:59:48.763Z,3.90
2023-03-12T03:02:15.364Z,3.50
2023-03-12T03:04:41.946Z,3.10
2023-03-12T03:07:08.565Z,2.80
2023-03-12T03:09:35.185Z,2.60
2023-03-12T03:12:01.749Z,2.70
2023-03-12T03:14:28.454Z,2.60
2023-03-12T03:16:55.048Z,2.60
2023-03-12T03:19:21.628Z,2.60
2023-03-12T03:21:55.515Z,2.60
2023-03-12T03:24:22.240Z,2.90
2023-03-12T03:26:48.833Z,3.20
2023-03-12T03:29:15.436Z,3.30
2023-03-12T03:34:26.281Z,3.60
2023-03-12T03:36:52.857Z,3.00
2023-03-12T03:39:19.434Z,2.50
2023-03-12T03:41:46.000Z,2.30
2023-03-12T03:44:12.585Z,2.40
2023-03-12T03:46:39.182Z,2.80
2023-03-12T03:49:05.774Z,3.00
2023-03-12T03:51:32.351Z,3.10
2023-03-12T03:53:58.904Z,3.20
2023-03-12T03:56:25.553Z,3.10
2023-03-12T03:58:52.145Z,2.90
2023-03-12T04:01:18.823Z,3.00
2023-03-12T04:03:45.485Z,2.50
2023-03-12T04:06:12.155Z,2.20
2023-03-12T04:08:38.734Z,2.50
2023-03-12T04:11:05.366Z,2.50
2023-03-12T04:13:32.129Z,2.40
2023-03-12T04:15:58.742Z,2.00
2023-03-12T04:18:25.463Z,1.90
2023-03-12T04:20:52.049Z,2.20
2023-03-12T04:23:18.639Z,2.50
2023-03-12T04:25:45.434Z,2.70
2023-03-12T04:28:12.095Z,2.90
2023-03-12T04:30:38.741Z,3.00
2023-03-12T04:33:05.366Z,2.50
2023-03-12T04:35:31.973Z,2.50
2023-03-12T04:37:58.595Z,2.60
2023-03-12T04:40:25.199Z,2.70
2023-03-12T04:42:51.784Z,2.80
2023-03-12T04:45:18.398Z,2.50
2023-03-12T04:47:45.007Z,2.00
2023-03-12T04:50:11.588Z,2.30
2023-03-12T04:52:38.151Z,2.50
2023-03-12T04:55:04.764Z,2.40
2023-03-12T04:57:31.364Z,1.60
2023-03-12T04:59:57.987Z,1.90
2023-03-12T05:02:24.607Z,2.20
2023-03-12T05:04:51.171Z,2.20
2023-03-12T05:07:17.771Z,1.60
2023-03-12T05:09:44.358Z,1.20
2023-03-12T05:12:11.138Z,1.40
2023-03-12T05:14:37.687Z,1.40
2023-03-12T05:17:04.268Z,0.90
2023-03-12T05:19:30.797Z,0.80
2023-03-12T05:21:57.381Z,0.90
2023-03-12T05:24:23.995Z,1.20
2023-03-12T05:26:50.570Z,1.30
2023-03-12T05:29:17.329Z,1.30
2023-03-12T05:31:44.007Z,1.50
2023-03-12T05:34:10.630Z,1.80
2023-03-12T05:36:37.557Z,2.00
2023-03-12T05:39:04.129Z,2.20
2023-03-12T05:41:30.702Z,2.20
2023-03-12T05:43:57.279Z,2.10
2023-03-12T05:46:23.888Z,1.70
2023-03-12T05:48:50.535Z,2.00
2023-03-12T05:51:17.091Z,1.80
2023-03-12T05:53:43.665Z,1.70
2023-03-12T05:56:10.224Z,2.10
2023-03-12T05:58:36.838Z,2.00
2023-03-12T06:01:03.425Z,1.60
2023-03-12T06:03:30.111Z,2.00
2023-03-12T06:05:56.765Z,2.30
2023-03-12T06:08:23.471Z,2.60
2023-03-12T06:10:50.078Z,2.80
2023-03-12T06:13:16.667Z,2.70
2023-03-12T06:15:44.258Z,2.90
2023-03-12T06:18:10.860Z,2.90
2023-03-12T06:20:37.418Z,2.60
2023-03-12T06:23:04.059Z,2.60
2023-03-12T06:25:30.645Z,3.00
2023-03-12T06:27:57.279Z,3.20
2023-03-12T06:30:23.871Z,2.70
2023-03-12T06:32:50.547Z,2.90
2023-03-12T06:35:17.191Z,2.80
2023-03-12T06:37:43.778Z,2.80
2023-03-12T06:40:10.434Z,2.80
2023-03-12T06:42:36.999Z,3.20
2023-03-12T06:45:03.571Z,3.70
2023-03-12T06:47:30.208Z,3.90
2023-03-12T06:49:57.213Z,4.20
2023-03-12T06:52:23.851Z,4.50
2023-03-12T06:54:50.463Z,4.60
2023-03-12T06:57:17.037Z,4.60
2023-03-12T06:59:43.626Z,4.60
2023-03-12T07:02:10.268Z,3.90
2023-03-12T07:04:36.909Z,3.80
2023-03-12T07:07:03.530Z,3.80
2023-03-12T07:09:30.084Z,3.90
2023-03-12T07:11:56.690Z,3.90
2023-03-12T07:14:23.273Z,4.30
2023-03-12T07:16:49.835Z,4.20
2023-03-12T07:19:16.447Z,4.10
2023-03-12T07:21:43.001Z,3.80
2023-03-12T07:24:09.614Z,4.00
2023-03-12T07:26:36.553Z,3.90
2023-03-12T07:29:03.119Z,3.90
2023-03-12T07:31:29.851Z,3.80
2023-03-12T07:33:56.534Z,4.00
2023-03-12T07:36:23.816Z,3.90
2023-03-12T07:38:51.058Z,4.30
2023-03-12T07:41:17.668Z,4.50
2023-03-12T07:43:44.551Z,4.80
2023-03-12T07:46:11.198Z,5.00
2023-03-12T07:48:37.935Z,4.90
2023-03-12T07:51:04.540Z,4.80
2023-03-12T07:53:31.153Z,4.60
2023-03-12T07:55:57.828Z,4.70
2023-03-12T07:58:24.526Z,4.80
2023-03-12T08:00:51.225Z,4.40
2023-03-12T08:03:26.729Z,4.60
2023-03-12T08:05:53.529Z,4.90
2023-03-12T08:08:20.137Z,4.70
2023-03-12T08:10:46.749Z,5.00
2023-03-12T08:13:13.343Z,5.20
2023-03-12T08:15:39.948Z,5.30
2023-03-12T08:18:06.526Z,5.20
2023-03-12T08:20:33.107Z,5.30
2023-03-12T08:22:59.708Z,5.30
2023-03-12T08:25:26.316Z,5.60
2023-03-12T08:27:52.887Z,6.00
2023-03-12T08:30:19.635Z,6.00
2023-03-12T08:32:46.274Z,5.90
2023-03-12T08:35:12.900Z,5.90
2023-03-12T08:37:39.489Z,6.10
2023-03-12T08:40:06.081Z,6.20
2023-03-12T08:42:32.636Z,6.20
2023-03-12T08:44:59.367Z,6.30
2023-03-12T08:47:25.924Z,6.30
2023-03-12T08:49:52.561Z,6.30
2023-03-12T08:52:19.372Z,6.30
2023-03-12T08:54:48.306Z,6.30
2023-03-12T08:57:14.896Z,6.20
2023-03-12T08:59:41.460Z,5.90
2023-03-12T09:02:08.057Z,6.50
2023-03-12T09:04:34.648Z,6.50
2023-03-12T09:07:01.276Z,6.40
2023-03-12T09:09:27.847Z,7.10
2023-03-12T09:11:54.470Z,6.60
2023-03-12T09:17:07.594Z,7.20
2023-03-12T09:19:34.183Z,6.90
2023-03-12T09:22:00.735Z,7.30
2023-03-12T09:24:27.324Z,6.90
2023-03-12T09:26:54.002Z,7.50
2023-03-12T09:29:20.607Z,7.60
2023-03-12T09:31:47.184Z,8.10
2023-03-12T09:34:13.789Z,8.00
2023-03-12T09:36:40.387Z,8.20
2023-03-12T09:39:06.981Z,7.80
2023-03-12T09:41:33.590Z,8.50
2023-03-12T09:44:02.277Z,8.10
2023-03-12T09:46:28.953Z,8.30
2023-03-12T09:48:55.653Z,8.60
2023-03-12T09:51:22.274Z,8.70
2023-03-12T09:53:48.880Z,9.10
2023-03-12T09:56:15.460Z,8.20
2023-03-12T09:58:42.039Z,8.40
2023-03-12T10:01:08.634Z,8.50
2023-03-12T10:03:35.318Z,8.60
2023-03-12T10:06:01.956Z,9.20
2023-03-12T10:08:29.093Z,8.60
2023-03-12T10:10:56.656Z,8.80
2023-03-12T10:13:23.307Z,9.20
2023-03-12T10:15:49.967Z,9.30
2023-03-12T10:18:16.776Z,9.20
2023-03-12T10:20:43.573Z,8.60
2023-03-12T10:23:10.251Z,9.20
2023-03-12T10:25:36.831Z,9.40
2023-03-12T10:28:03.414Z,9.60
2023-03-12T10:30:29.981Z,9.90
2023-03-12T10:32:56.652Z,9.60
2023-03-12T10:35:23.298Z,9.30
2023-03-12T10:37:49.912Z,9.40
2023-03-12T10:40:16.472Z,8.90
2023-03-12T10:42:45.408Z,9.00
2023-03-12T10:45:12.129Z,9.00
2023-03-12T10:47:38.697Z,9.10
2023-03-12T10:50:05.294Z,9.70
2023-03-12T10:52:31.859Z,9.90
2023-03-12T10:54:58.491Z,9.10
2023-03-12T10:57:25.065Z,9.00
2023-03-12T10:59:51.702Z,9.90
2023-03-12T11:02:18.630Z,10.30
2023-03-12T11:04:45.218Z,10.50
2023-03-12T11:07:11.823Z,10.80
2023-03-12T11:09:38.397Z,10.60
2023-03-12T11:12:05.247Z,10.40
2023-03-12T11:14:31.833Z,10.40
2023-03-12T11:16:58.444Z,10.50
2023-03-12T11:19:25.198Z,10.40
2023-03-12T11:21:51.759Z,10.70
2023-03-12T11:24:18.327Z,10.60
2023-03-12T11:26:44.915Z,10.50
2023-03-12T11:29:11.524Z,10.60
2023-03-12T11:31:38.160Z,10.80
2023-03-12T11:34:04.734Z,10.90
2023-03-12T11:36:31.413Z,11.20
2023-03-12T11:38:58.176Z,10.90
2023-03-12T11:41:24.821Z,11.10
2023-03-12T11:43:51.409Z,11.40
2023-03-12T11:46:18.036Z,11.90
2023-03-12T11:48:44.780Z,11.70
2023-03-12T11:51:11.454Z,11.20
2023-03-12T11:53:38.042Z,11.50
2023-03-12T11:56:04.614Z,11.80
2023-03-12T11:58:31.202Z,11.80
2023-03-12T12:00:57.788Z,12.10
2023-03-12T12:03:24.450Z,11.50
2023-03-12T12:05:51.106Z,11.50
2023-03-12T12:08:17.701Z,11.90
2023-03-12T12:10:44.309Z,12.30
2023-03-12T12:13:10.950Z,11.50
2023-03-12T12:15:37.590Z,11.40
2023-03-12T12:18:04.187Z,11.70
2023-03-12T12:20:30.766Z,11.90
2023-03-12T12:22:57.367Z,12.10
2023-03-12T12:25:24.069Z,11.70
2023-03-12T12:27:50.824Z,11.60
2023-03-12T12:30:17.408Z,11.40
2023-03-12T12:32:44.103Z,11.20
2023-03-12T12:35:13.630Z,11.40
2023-03-12T12:37:40.708Z,11.40
2023-03-12T12:40:07.291Z,11.80
2023-03-12T12:42:33.895Z,11.80
2023-03-12T12:45:00.463Z,12.20
2023-03-12T12:50:11.109Z,12.90
2023-03-12T12:52:37.684Z,12.80
2023-03-12T12:55:04.238Z,12.40
2023-03-12T12:57:31.039Z,12.30
2023-03-12T12:59:57.626Z,12.20
2023-03-12T13:02:24.211Z,12.20
2023-03-12T13:04:50.794Z,11.50
2023-03-12T13:07:17.380Z,11.60
2023-03-12T13:09:43.970Z,12.30
2023-03-12T13:12:10.538Z,12.90
2023-03-12T13:14:37.147Z,13.00
2023-03-12T13:17:04.097Z,13.10
2023-03-12T13:19:30.742Z,12.80
2023-03-12T13:21:57.416Z,12.40
2023-03-12T13:24:24.043Z,11.50
2023-03-12T13:26:50.622Z,12.00
2023-03-12T13:29:17.190Z,12.30
2023-03-12T13:31:43.786Z,12.60
2023-03-12T13:34:10.360Z,12.60
2023-03-12T13:36:36.952Z,13.10
2023-03-12T13:39:03.546Z,13.10
2023-03-12T13:41:31.823Z,13.30
2023-03-12T13:43:58.521Z,13.20
2023-03-12T13:46:25.231Z,13.30
2023-03-12T13:48:51.858Z,13.30
2023-03-12T13:51:18.624Z,13.30
2023-03-12T13:53:45.192Z,13.50
2023-03-12T13:56:11.805Z,13.30
2023-03-12T13:58:38.398Z,13.60
2023-03-12T14:01:04.998Z,13.30
2023-03-12T14:03:31.580Z,13.00
2023-03-12T14:05:58.203Z,13.80
2023-03-12T14:08:25.785Z,14.20
2023-03-12T14:10:52.429Z,13.80
2023-03-12T14:13:19.023Z,13.80
2023-03-12T14:15:45.661Z,13.10
2023-03-12T14:18:12.350Z,12.90
2023-03-12T14:20:39.026Z,13.40
2023-03-12T14:23:05.629Z,13.80
2023-03-12T14:25:32.304Z,14.10
2023-03-12T14:27:59.053Z,13.80
2023-03-12T14:30:25.636Z,13.30
2023-03-12T14:32:52.296Z,13.40
2023-03-12T14:35:18.899Z,13.30
2023-03-12T14:37:45.470Z,12.80
2023-03-12T14:40:12.140Z,13.00
2023-03-12T14:42:38.714Z,13.50
2023-03-12T14:45:05.333Z,13.70
2023-03-12T14:47:32.166Z,13.80
2023-03-12T14:49:58.733Z,13.90
2023-03-12T14:52:25.357Z,13.80
2023-03-12T14:54:51.912Z,13.90
2023-03-12T14:57:18.530Z,14.30
2023-03-12T14:59:45.267Z,14.30
2023-03-12T15:02:11.958Z,14.20
2023-03-12T15:04:38.616Z,13.90
2023-03-12T15:07:05.241Z,14.10
2023-03-12T15:09:31.831Z,13.90
2023-03-12T15:11:58.512Z,13.10
2023-03-12T15:14:25.091Z,12.80
2023-03-12T15:16:51.660Z,12.70
2023-03-12T15:19:18.249Z,13.30
2023-03-12T15:21:44.832Z,13.40
2023-03-12T15:24:11.483Z,13.40
2023-03-12T15:26:38.131Z,13.00
2023-03-12T15:29:04.885Z,12.80
2023-03-12T15:31:31.705Z,12.70
2023-03-12T15:33:58.447Z,12.90
2023-03-12T15:36:25.196Z,13.20
2023-03-12T15:38:51.813Z,13.30
2023-03-12T15:41:18.397Z,13.40
2023-03-12T15:43:45.161Z,13.10
2023-03-12T15:46:12.176Z,12.40
2023-03-12T15:48:38.839Z,12.80
2023-03-12T15:51:05.428Z,13.00
2023-03-12T15:53:32.014Z,12.70
2023-03-12T15:55:58.595Z,12.30
2023-03-12T15:58:25.179Z,12.50
2023-03-12T16:00:51.849Z,12.90
2023-03-12T16:03:18.471Z,12.90
2023-03-12T16:05:45.023Z,13.20
2023-03-12T16:08:11.610Z,12.90
2023-03-12T16:10:38.198Z,12.60
2023-03-12T16:13:04.798Z,12.50
2023-03-12T16:15:31.407Z,12.60
2023-03-12T16:17:57.967Z,12.90
2023-03-12T16:20:24.706Z,12.80
2023-03-12T16:22:51.441Z,13.00
2023-03-12T16:25:18.057Z,12.60
2023-03-12T16:27:44.607Z,12.50
2023-03-12T16:30:11.194Z,12.60
2023-03-12T16:32:37.792Z,12.50
2023-03-12T16:35:04.378Z,12.50
2023-03-12T16:37:30.976Z,12.10
2023-03-12T16:39:57.852Z,12.10
2023-03-12T16:42:24.469Z,12.20
2023-03-12T16:44:51.049Z,12.20
2023-03-12T16:47:17.702Z,12.10
2023-03-12T16:49:44.289Z,11.80
2023-03-12T16:52:10.898Z,11.80
2023-03-12T16:54:37.465Z,11.90
2023-03-12T16:57:04.031Z,11.90
2023-03-12T16:59:30.648Z,11.80
2023-03-12T17:01:57.632Z,11.60
2023-03-12T17:04:24.311Z,11.70
2023-03-12T17:06:51.033Z,11.80
2023-03-12T17:09:17.600Z,11.70
2023-03-12T17:11:44.232Z,11.60
2023-03-12T17:14:10.824Z,11.60
2023-03-12T17:16:37.528Z,11.60
2023-03-12T17:19:04.136Z,11.50
2023-03-12T17:21:30.718Z,11.40
2023-03-12T17:23:57.558Z,11.40
2023-03-12T17:26:24.130Z,11.50
2023-03-12T17:28:50.682Z,11.60
2023-03-12T17:31:17.312Z,11.70
2023-03-12T17:33:43.902Z,11.60
2023-03-12T17:36:10.509Z,11.50
2023-03-12T17:38:37.065Z,11.40
2023-03-12T17:41:04.677Z,11.20
2023-03-12T17:43:31.664Z,11.10
2023-03-12T17:45:58.288Z,11.10
2023-03-12T17:48:24.869Z,11.20
2023-03-12T17:50:51.652Z,10.90
2023-03-12T17:53:18.250Z,10.90
2023-03-12T17:55:44.980Z,10.90
2023-03-12T17:58:11.565Z,10.70
2023-03-12T18:00:38.126Z,10.40
2023-03-12T18:03:04.799Z,10.40
2023-03-12T18:05:31.386Z,10.30
2023-03-12T18:07:57.961Z,10.10
2023-03-12T18:10:24.554Z,10.10
2023-03-12T18:12:51.143Z,10.20
2023-03-12T18:15:17.786Z,10.00
2023-03-12T18:17:44.591Z,9.60
2023-03-12T18:20:11.170Z,9.10
2023-03-12T18:22:37.759Z,9.30
2023-03-12T18:25:04.379Z,9.50
2023-03-12T18:27:30.960Z,9.50
2023-03-12T18:29:57.518Z,9.60
2023-03-12T18:32:24.161Z,9.60
2023-03-12T18:34:50.736Z,9.40
2023-03-12T18:37:17.365Z,9.20
2023-03-12T18:39:44.018Z,8.80
2023-03-12T18:42:10.591Z,8.90
2023-03-12T18:44:37.183Z,8.80
2023-03-12T18:47:03.752Z,8.50
2023-03-12T18:49:30.335Z,8.10
2023-03-12T18:51:56.927Z,8.50
2023-03-12T18:54:24.696Z,8.60
2023-03-12T18:56:51.530Z,8.90
2023-03-12T18:59:18.125Z,9.00
2023-03-12T19:01:44.719Z,9.10
2023-03-12T19:04:11.456Z,9.10
2023-03-12T19:06:50.057Z,8.90
2023-03-12T19:09:17.618Z,8.90
2023-03-12T19:11:44.610Z,8.70
2023-03-12T19:14:11.222Z,8.70
2023-03-12T19:16:38.028Z,7.80
2023-03-12T19:19:04.704Z,7.70
2023-03-12T19:21:31.307Z,7.40
2023-03-12T19:23:57.903Z,7.40
2023-03-12T19:26:24.484Z,7.00
2023-03-12T19:28:51.086Z,7.40
2023-03-12T19:31:17.685Z,7.80
2023-03-12T19:33:44.308Z,7.90
2023-03-12T19:36:10.898Z,7.90
2023-03-12T19:38:37.584Z,7.50
2023-03-12T19:41:04.181Z,7.60
2023-03-12T19:43:30.792Z,7.70
2023-03-12T19:45:57.417Z,7.70
2023-03-12T19:48:24.151Z,7.60
2023-03-12T19:50:50.727Z,7.60
2023-03-12T19:53:17.324Z,7.50
2023-03-12T19:55:43.901Z,7.00
2023-03-12T19:58:10.477Z,6.60
2023-03-12T20:00:37.080Z,7.00
2023-03-12T20:03:03.785Z,6.80
2023-03-12T20:05:30.461Z,6.50
2023-03-12T20:07:57.281Z,6.70
2023-03-12T20:10:23.859Z,6.90
2023-03-12T20:12:50.475Z,6.70
2023-03-12T20:15:17.094Z,6.90
2023-03-12T20:17:43.652Z,7.00
2023-03-12T20:20:10.246Z,7.10
2023-03-12T20:22:36.834Z,7.10
2023-03-12T20:25:03.473Z,6.80
2023-03-12T20:27:30.210Z,6.30
2023-03-12T20:29:56.804Z,6.20
2023-03-12T20:32:23.454Z,6.30
2023-03-12T20:34:50.085Z,6.20
2023-03-12T20:37:16.751Z,6.40
2023-03-12T20:39:43.354Z,6.50
2023-03-12T20:42:09.935Z,6.30
2023-03-12T20:44:36.651Z,6.20
2023-03-12T20:47:03.272Z,6.50
2023-03-12T20:49:29.893Z,6.40
2023-03-12T20:51:56.480Z,6.10
2023-03-12T20:54:23.071Z,6.30
2023-03-12T20:56:49.853Z,5.20
2023-03-12T20:59:16.657Z,4.90
2023-03-12T21:01:43.350Z,5.40
2023-03-12T21:04:10.064Z,5.80
2023-03-12T21:06:36.903Z,5.40
2023-03-12T21:09:03.504Z,5.30
2023-03-12T21:11:30.141Z,5.30
2023-03-12T21:13:56.728Z,5.10
2023-03-12T21:16:23.381Z,5.40
2023-03-12T21:18:49.985Z,5.50
2023-03-12T21:21:16.567Z,5.80
2023-03-12T21:23:43.210Z,5.80
2023-03-12T21:26:09.922Z,6.00
2023-03-12T21:28:36.529Z,5.80
2023-03-12T21:31:03.217Z,5.10
2023-03-12T21:33:29.804Z,5.20
2023-03-12T21:35:56.472Z,5.50
2023-03-12T21:38:23.117Z,5.50
2023-03-12T21:40:49.702Z,5.70
2023-03-12T21:43:16.430Z,5.90
2023-03-12T21:45:42.989Z,4.90
2023-03-12T21:48:09.585Z,4.70
2023-03-12T21:50:36.141Z,5.10
2023-03-12T21:53:05.078Z,5.30
2023-03-12T21:55:38.255Z,5.20
2023-03-12T21:58:04.863Z,5.40
2023-03-12T22:00:31.420Z,4.90
2023-03-12T22:02:58.156Z,5.20
2023-03-12T22:05:24.726Z,4.90
2023-03-12T22:07:51.281Z,4.70
2023-03-12T22:10:17.877Z,4.60
2023-03-12T22:12:44.476Z,4.70
2023-03-12T22:15:11.061Z,4.90
2023-03-12T22:17:37.626Z,4.80
2023-03-12T22:20:04.213Z,4.60
2023-03-12T22:22:31.002Z,4.70
2023-03-12T22:24:57.570Z,5.00
2023-03-12T22:27:24.150Z,5.00
2023-03-12T22:29:50.737Z,5.10
2023-03-12T22:32:17.458Z,5.20
2023-03-12T22:34:44.077Z,5.20
2023-03-12T22:37:10.654Z,5.00
2023-03-12T22:39:37.236Z,5.10
2023-03-12T22:42:03.827Z,5.10
2023-03-12T22:44:30.385Z,4.80
2023-03-12T22:46:58.068Z,4.80
2023-03-12T22:49:24.773Z,5.00
2023-03-12T22:51:51.365Z,4.60
2023-03-12T22:54:17.974Z,4.60
2023-03-12T22:56:44.620Z,4.80
2023-03-12T22:59:11.202Z,4.90
2023-03-12T23:01:37.867Z,4.30
2023-03-12T23:04:04.446Z,4.50
2023-03-12T23:06:31.299Z,4.70
2023-03-12T23:08:57.953Z,4.60
2023-03-12T23:11:24.579Z,4.70
2023-03-12T23:13:51.186Z,4.60
2023-03-12T23:16:17.850Z,4.40
2023-03-12T23:18:44.495Z,4.50
2023-03-12T23:21:11.177Z,4.60
2023-03-12T23:23:37.747Z,4.80
2023-03-12T23:26:04.359Z,5.00
2023-03-12T23:28:30.945Z,4.50
2023-03-12T23:30:57.620Z,4.80
2023-03-12T23:33:25.215Z,4.60
2023-03-12T23:35:51.823Z,4.40
2023-03-12T23:38:18.640Z,4.50
2023-03-12T23:40:45.228Z,4.60
2023-03-12T23:43:12.092Z,4.80
2023-03-12T23:45:38.676Z,4.80
2023-03-12T23:48:05.439Z,4.80
2023-03-12T23:50:32.017Z,4.80
2023-03-12T23:52:58.598Z,4.20
2023-03-12T23:55:25.149Z,4.20
2023-03-12T23:57:51.728Z,4.30
